createdAt,value
2018-12-08T00:02:22.905Z,9.93
2018-12-08T00:04:51.527Z,12.30
2018-12-08T00:21:05.118Z,14.03
2018-12-08T00:26:28.918Z,10.00
2018-12-08T00:28:57.226Z,16.83
2018-12-08T00:31:36.717Z,15.57
2018-12-08T00:34:05.028Z,14.80
2018-12-08T00:36:33.399Z,18.43
2018-12-08T00:39:01.688Z,16.87
2018-12-08T00:41:29.955Z,20.87
2018-12-08T00:43:58.254Z,16.83
2018-12-08T00:46:26.899Z,17.70
2018-12-08T00:51:21.174Z,12.70
2018-12-08T00:53:49.477Z,11.20
2018-12-08T00:56:17.793Z,17.20
2018-12-08T00:58:46.097Z,17.67
2018-12-08T01:01:14.530Z,16.50
2018-12-08T01:03:42.798Z,15.63
2018-12-08T01:06:11.084Z,13.00
2018-12-08T01:08:39.398Z,21.20
2018-12-08T01:11:07.794Z,17.70
2018-12-08T01:13:36.158Z,18.30
2018-12-08T01:16:04.523Z,19.13
2018-12-08T01:18:32.774Z,14.43
2018-12-08T01:21:01.086Z,14.57
2018-12-08T01:23:31.566Z,22.03
2018-12-08T01:25:59.831Z,16.10
2018-12-08T01:28:29.424Z,11.87
2018-12-08T01:30:57.714Z,15.60
2018-12-08T01:33:26.022Z,21.87
2018-12-08T01:35:55.534Z,15.93
2018-12-08T01:38:23.974Z,17.30
2018-12-08T01:40:52.333Z,14.50
2018-12-08T01:43:20.628Z,18.57
2018-12-08T01:45:48.930Z,15.80
2018-12-08T01:48:17.226Z,15.77
2018-12-08T01:50:45.523Z,12.20
2018-12-08T01:53:13.845Z,15.80
2018-12-08T01:55:42.241Z,12.40
2018-12-08T01:58:11.438Z,16.40
2018-12-08T02:00:39.854Z,16.57
2018-12-08T02:03:09.146Z,18.80
2018-12-08T02:05:37.546Z,15.20
2018-12-08T02:08:05.843Z,16.50
2018-12-08T02:10:34.160Z,18.13
2018-12-08T02:13:02.536Z,18.10
2018-12-08T02:15:30.843Z,16.60
2018-12-08T02:18:00.097Z,16.93
2018-12-08T02:20:29.343Z,17.10
2018-12-08T02:22:57.737Z,17.70
2018-12-08T02:25:26.218Z,17.03
2018-12-08T02:27:54.582Z,14.50
2018-12-08T02:30:23.077Z,16.43
2018-12-08T02:32:51.434Z,16.40
2018-12-08T02:35:19.743Z,18.20
2018-12-08T02:37:48.095Z,19.43
2018-12-08T02:40:16.807Z,20.37
2018-12-08T02:42:45.119Z,19.10
2018-12-08T02:45:13.767Z,19.00
2018-12-08T02:47:42.018Z,18.20
2018-12-08T03:03:41.820Z,25.73
2018-12-08T03:06:10.156Z,27.10
2018-12-08T03:08:38.443Z,23.00
2018-12-08T03:11:06.837Z,16.87
2018-12-08T03:13:35.204Z,21.17
2018-12-08T03:16:03.571Z,21.50
2018-12-08T03:18:31.876Z,17.00
2018-12-08T03:21:00.299Z,16.63
2018-12-08T03:23:28.657Z,15.83
2018-12-08T03:25:57.468Z,21.17
2018-12-08T03:28:25.917Z,17.97
2018-12-08T03:30:54.260Z,11.57
2018-12-08T03:33:22.583Z,19.87
2018-12-08T03:35:50.961Z,19.03
2018-12-08T03:38:18.563Z,18.30
2018-12-08T03:40:46.863Z,15.57
2018-12-08T03:43:15.137Z,16.37
2018-12-08T03:45:43.860Z,17.57
2018-12-08T03:48:12.157Z,17.07
2018-12-08T03:50:40.461Z,20.47
2018-12-08T03:53:08.806Z,15.90
2018-12-08T03:55:37.144Z,23.77
2018-12-08T03:58:05.569Z,18.03
2018-12-08T04:00:33.859Z,18.73
2018-12-08T04:03:03.186Z,15.17
2018-12-08T04:05:31.496Z,17.97
2018-12-08T04:07:59.795Z,17.27
2018-12-08T04:10:28.914Z,17.67
2018-12-08T04:12:57.226Z,20.00
2018-12-08T04:15:25.502Z,17.90
2018-12-08T04:17:53.968Z,22.10
2018-12-08T04:20:22.589Z,17.17
2018-12-08T04:22:51.134Z,18.43
2018-12-08T04:25:19.819Z,21.63
2018-12-08T04:27:48.849Z,14.10
2018-12-08T04:30:20.614Z,19.90
2018-12-08T04:32:48.942Z,18.17
2018-12-08T04:35:19.177Z,21.50
2018-12-08T04:37:47.513Z,19.30
2018-12-08T04:40:15.807Z,22.37
2018-12-08T04:42:44.069Z,13.40
2018-12-08T04:45:12.373Z,18.10
2018-12-08T04:47:40.738Z,19.00
2018-12-08T04:50:09.303Z,18.90
2018-12-08T04:52:37.606Z,18.83
2018-12-08T04:55:06.418Z,15.93
2018-12-08T04:57:34.819Z,25.30
2018-12-08T05:00:03.751Z,18.87
2018-12-08T05:02:32.045Z,17.83
2018-12-08T05:05:00.583Z,20.90
2018-12-08T05:07:28.862Z,20.80
2018-12-08T05:09:58.170Z,14.97
2018-12-08T05:12:26.577Z,21.03
2018-12-08T05:14:54.997Z,16.77
2018-12-08T05:17:23.290Z,19.53
2018-12-08T05:19:51.627Z,17.73
2018-12-08T05:22:20.344Z,18.80
2018-12-08T05:24:49.393Z,28.30
2018-12-08T05:27:17.688Z,26.37
2018-12-08T05:29:46.310Z,20.60
2018-12-08T05:32:14.646Z,28.13
2018-12-08T05:34:43.247Z,22.43
2018-12-08T05:37:11.867Z,19.33
2018-12-08T05:39:40.138Z,17.93
2018-12-08T05:42:08.411Z,25.47
2018-12-08T05:44:36.991Z,19.70
2018-12-08T05:47:05.427Z,18.13
2018-12-08T05:49:33.759Z,20.03
2018-12-08T05:52:02.033Z,20.60
2018-12-08T05:54:30.353Z,18.20
2018-12-08T05:56:58.598Z,19.03
2018-12-08T05:59:33.896Z,20.00
2018-12-08T06:32:49.712Z,21.07
2018-12-08T06:38:13.742Z,23.27
2018-12-08T06:40:42.386Z,22.13
2018-12-08T06:43:10.746Z,25.37
2018-12-08T06:45:39.462Z,26.83
2018-12-08T06:48:07.849Z,22.20
2018-12-08T06:50:36.431Z,23.10
2018-12-08T06:53:05.378Z,23.20
2018-12-08T06:55:33.662Z,24.03
2018-12-08T06:58:02.056Z,22.70
2018-12-08T07:00:30.458Z,19.13
2018-12-08T07:02:58.816Z,21.33
2018-12-08T07:05:27.226Z,25.80
2018-12-08T07:07:56.617Z,16.73
2018-12-08T07:10:25.207Z,22.40
2018-12-08T07:12:53.535Z,30.50
2018-12-08T07:15:22.026Z,20.37
2018-12-08T07:17:50.318Z,28.03
2018-12-08T07:20:18.623Z,26.83
2018-12-08T07:22:46.950Z,15.63
2018-12-08T07:25:15.860Z,25.60
2018-12-08T07:27:44.322Z,22.30
2018-12-08T07:30:12.600Z,24.57
2018-12-08T07:32:40.889Z,25.13
2018-12-08T07:35:09.426Z,21.07
2018-12-08T07:37:38.070Z,32.03
2018-12-08T07:40:08.933Z,21.83
2018-12-08T07:42:37.324Z,23.37
2018-12-08T07:45:06.810Z,30.00
2018-12-08T07:47:55.169Z,25.80
2018-12-08T07:53:41.083Z,25.03
2018-12-08T07:56:12.594Z,19.57
2018-12-08T07:58:40.999Z,15.97
2018-12-08T08:01:11.034Z,16.97
2018-12-08T08:03:43.198Z,27.30
2018-12-08T08:06:11.567Z,23.23
2018-12-08T08:08:49.604Z,24.60
2018-12-08T08:11:17.890Z,22.23
2018-12-08T08:45:48.016Z,18.63
2018-12-08T08:48:16.526Z,25.00
2018-12-08T08:50:47.661Z,13.90
2018-12-08T08:56:25.175Z,14.83
2018-12-08T08:58:54.808Z,23.33
2018-12-08T09:01:23.788Z,20.53
2018-12-08T09:03:52.275Z,18.47
2018-12-08T09:06:20.877Z,23.67
2018-12-08T09:08:49.285Z,22.90
2018-12-08T09:11:19.460Z,15.47
2018-12-08T09:13:47.905Z,17.17
2018-12-08T09:16:17.052Z,23.47
2018-12-08T09:18:45.522Z,19.10
2018-12-08T09:21:13.934Z,19.53
2018-12-08T09:23:43.595Z,19.00
2018-12-08T09:26:12.314Z,18.73
2018-12-08T09:28:41.757Z,16.17
2018-12-08T09:31:10.713Z,16.17
2018-12-08T09:33:40.311Z,17.17
2018-12-08T09:36:08.632Z,15.17
2018-12-08T09:38:36.911Z,27.83
2018-12-08T09:41:08.817Z,18.33
2018-12-08T09:43:37.201Z,18.83
2018-12-08T09:46:07.475Z,16.63
2018-12-08T09:48:35.833Z,14.90
2018-12-08T09:51:04.124Z,14.10
2018-12-08T09:53:32.630Z,19.50
2018-12-08T09:56:01.174Z,15.13
2018-12-08T09:58:29.506Z,19.83
2018-12-08T10:00:57.821Z,16.33
2018-12-08T10:03:26.234Z,17.40
2018-12-08T10:05:54.550Z,20.40
2018-12-08T10:08:23.295Z,12.73
2018-12-08T10:10:51.722Z,11.70
2018-12-08T10:13:20.417Z,15.57
2018-12-08T10:15:48.769Z,16.87
2018-12-08T10:18:17.067Z,15.40
2018-12-08T10:20:45.534Z,17.07
2018-12-08T10:23:13.851Z,20.30
2018-12-08T10:25:42.185Z,16.63
2018-12-08T10:28:10.541Z,20.33
2018-12-08T10:30:39.030Z,15.77
2018-12-08T10:33:07.534Z,14.17
2018-12-08T10:35:36.273Z,16.00
2018-12-08T10:38:05.423Z,13.33
2018-12-08T10:40:33.920Z,17.80
2018-12-08T10:43:02.263Z,14.43
2018-12-08T10:45:31.022Z,13.77
2018-12-08T10:47:59.339Z,24.97
2018-12-08T10:50:27.971Z,17.17
2018-12-08T10:52:56.283Z,18.13
2018-12-08T10:55:24.711Z,14.47
2018-12-08T10:57:54.165Z,19.23
2018-12-08T11:00:27.810Z,13.93
2018-12-08T11:03:00.390Z,19.50
2018-12-08T11:05:28.979Z,23.83
2018-12-08T11:07:57.292Z,24.67
2018-12-08T11:10:25.658Z,22.00
2018-12-08T11:12:54.024Z,13.00
2018-12-08T11:15:22.477Z,16.43
2018-12-08T11:17:50.775Z,19.57
2018-12-08T11:20:19.147Z,12.73
2018-12-08T11:22:47.488Z,12.57
2018-12-08T11:25:16.813Z,15.10
2018-12-08T11:27:45.213Z,16.87
2018-12-08T11:30:13.633Z,19.30
2018-12-08T11:32:41.987Z,15.77
2018-12-08T11:35:10.682Z,16.33
2018-12-08T11:37:39.890Z,15.30
2018-12-08T11:40:08.630Z,15.20
2018-12-08T11:42:37.063Z,12.57
2018-12-08T11:45:05.655Z,22.93
2018-12-08T11:47:34.035Z,14.13
2018-12-08T11:50:02.487Z,10.57
2018-12-08T11:52:31.015Z,13.63
2018-12-08T11:54:59.381Z,13.97
2018-12-08T11:57:28.166Z,12.53
2018-12-08T11:59:56.545Z,16.07
2018-12-08T12:02:25.015Z,16.90
2018-12-08T12:04:53.519Z,21.23
2018-12-08T12:07:21.951Z,13.87
2018-12-08T12:09:50.534Z,17.13
2018-12-08T12:12:18.986Z,14.00
2018-12-08T12:14:48.826Z,12.73
2018-12-08T12:17:17.343Z,13.93
2018-12-08T12:19:45.770Z,15.70
2018-12-08T12:22:14.163Z,12.17
2018-12-08T12:24:42.515Z,15.80
2018-12-08T12:27:11.042Z,13.87
2018-12-08T12:29:39.354Z,13.80
2018-12-08T12:32:07.732Z,16.50
2018-12-08T12:34:36.300Z,10.50
2018-12-08T12:37:04.758Z,7.63
2018-12-08T12:39:33.173Z,14.93
2018-12-08T12:42:01.533Z,10.87
2018-12-08T12:44:29.826Z,16.43
2018-12-08T12:46:58.178Z,9.10
2018-12-08T12:49:26.862Z,13.50
2018-12-08T12:51:55.203Z,15.30
2018-12-08T12:54:23.866Z,12.90
2018-12-08T12:56:52.200Z,14.03
2018-12-08T12:59:20.526Z,12.30
2018-12-08T13:01:48.826Z,12.57
2018-12-08T13:04:17.196Z,12.87
2018-12-08T13:06:45.520Z,14.30
2018-12-08T13:09:13.951Z,12.03
2018-12-08T13:11:44.205Z,14.43
2018-12-08T13:14:13.343Z,13.60
2018-12-08T13:16:42.095Z,16.63
2018-12-08T13:19:10.442Z,16.47
2018-12-08T13:21:38.783Z,16.50
2018-12-08T13:24:07.169Z,16.57
2018-12-08T13:26:35.471Z,12.97
2018-12-08T13:29:04.145Z,16.53
2018-12-08T13:31:32.582Z,12.20
2018-12-08T13:34:11.053Z,18.27
2018-12-08T13:36:39.642Z,27.23
2018-12-08T13:39:06.970Z,19.73
2018-12-08T13:41:35.546Z,11.10
2018-12-08T13:44:05.280Z,15.53
2018-12-08T13:46:33.591Z,18.00
2018-12-08T13:49:01.935Z,20.53
2018-12-08T13:51:29.802Z,13.80
2018-12-08T13:53:58.098Z,22.83
2018-12-08T13:56:26.754Z,23.73
2018-12-08T13:58:56.016Z,19.33
2018-12-08T14:01:24.398Z,19.60
2018-12-08T14:03:53.336Z,15.63
2018-12-08T14:06:21.770Z,23.70
2018-12-08T14:08:50.117Z,15.77
2018-12-08T14:11:18.612Z,21.50
2018-12-08T14:13:46.951Z,23.00
2018-12-08T14:16:15.298Z,22.63
2018-12-08T14:18:43.664Z,26.67
2018-12-08T14:21:11.991Z,25.10
2018-12-08T14:23:40.301Z,17.83
2018-12-08T14:28:36.708Z,29.27
2018-12-08T14:31:05.149Z,25.13
2018-12-08T14:33:34.026Z,24.17
2018-12-08T14:36:02.857Z,20.10
2018-12-08T14:38:31.311Z,32.43
2018-12-08T14:40:59.657Z,29.97
2018-12-08T14:43:28.264Z,24.63
2018-12-08T14:45:56.578Z,22.73
2018-12-08T14:48:27.433Z,27.73
2018-12-08T14:50:56.628Z,24.20
2018-12-08T14:53:25.052Z,30.27
2018-12-08T14:55:53.370Z,27.13
2018-12-08T14:58:22.742Z,22.10
2018-12-08T15:00:52.365Z,25.27
2018-12-08T15:03:35.610Z,27.13
2018-12-08T15:06:10.583Z,28.03
2018-12-08T15:08:42.439Z,26.57
2018-12-08T15:11:10.917Z,29.50
2018-12-08T15:13:41.329Z,27.70
2018-12-08T15:16:12.541Z,25.97
2018-12-08T15:18:41.546Z,27.27
2018-12-08T15:21:11.228Z,26.87
2018-12-08T15:23:39.746Z,23.50
2018-12-08T15:26:11.584Z,27.53
2018-12-08T15:28:42.196Z,29.17
2018-12-08T15:31:11.114Z,26.57
2018-12-08T15:33:39.907Z,23.07
2018-12-08T15:36:10.267Z,20.33
2018-12-08T15:38:39.239Z,31.23
2018-12-08T15:41:09.406Z,21.77
2018-12-08T15:43:37.990Z,27.93
2018-12-08T15:46:07.691Z,22.03
2018-12-08T15:51:03.949Z,19.37
2018-12-08T15:53:32.584Z,20.23
2018-12-08T15:56:02.568Z,22.30
2018-12-08T15:58:30.912Z,24.13
2018-12-08T16:00:59.507Z,17.47
2018-12-08T16:03:27.805Z,19.37
2018-12-08T16:05:56.163Z,24.87
2018-12-08T16:08:24.652Z,20.57
2018-12-08T16:10:53.268Z,23.33
2018-12-08T16:13:24.084Z,26.43
2018-12-08T16:15:52.440Z,26.30
2018-12-08T16:18:20.806Z,22.97
2018-12-08T16:20:49.427Z,18.87
2018-12-08T16:23:17.741Z,21.33
2018-12-08T16:25:46.169Z,24.13
2018-12-08T16:28:14.527Z,21.77
2018-12-08T16:30:42.916Z,16.70
2018-12-08T16:33:11.588Z,18.60
2018-12-08T16:35:40.011Z,19.40
2018-12-08T16:38:08.311Z,21.37
2018-12-08T16:40:36.716Z,19.70
2018-12-08T16:43:05.122Z,24.20
2018-12-08T16:45:33.414Z,24.93
2018-12-08T16:48:01.830Z,20.23
2018-12-08T16:50:30.206Z,18.97
2018-12-08T16:52:58.498Z,23.37
2018-12-08T16:55:27.226Z,22.63
2018-12-08T16:57:56.005Z,28.63
2018-12-08T17:00:25.387Z,28.83
2018-12-08T17:02:54.950Z,30.47
2018-12-08T17:05:23.346Z,23.27
2018-12-08T17:07:51.857Z,21.30
2018-12-08T17:10:20.161Z,20.63
2018-12-08T17:12:50.091Z,25.40
2018-12-08T17:15:18.812Z,27.43
2018-12-08T17:17:47.792Z,24.23
2018-12-08T17:20:16.608Z,20.33
2018-12-08T17:22:44.992Z,24.00
2018-12-08T17:25:13.587Z,23.20
2018-12-08T17:27:43.209Z,23.87
2018-12-08T17:30:12.039Z,22.33
2018-12-08T17:32:47.140Z,23.33
2018-12-08T17:35:44.362Z,20.23
2018-12-08T17:38:36.625Z,12.50
2018-12-08T17:44:28.310Z,11.70
2018-12-08T17:47:28.244Z,10.30
2018-12-08T17:53:22.772Z,11.43
2018-12-08T17:56:22.931Z,20.97
2018-12-08T17:58:52.234Z,12.63
2018-12-08T18:01:20.842Z,12.70
2018-12-08T18:03:49.323Z,10.77
2018-12-08T18:06:18.117Z,19.57
2018-12-08T18:08:46.648Z,10.93
2018-12-08T18:11:14.946Z,15.90
2018-12-08T18:13:43.292Z,11.57
2018-12-08T18:16:13.061Z,16.30
2018-12-08T18:18:41.477Z,18.50
2018-12-08T18:21:09.768Z,16.93
2018-12-08T18:23:38.330Z,17.37
2018-12-08T18:26:06.615Z,12.07
2018-12-08T18:28:34.179Z,12.63
2018-12-08T18:31:02.610Z,12.60
2018-12-08T18:33:30.943Z,11.73
2018-12-08T18:35:59.222Z,10.63
2018-12-08T18:38:26.856Z,13.90
2018-12-08T18:40:55.267Z,9.00
2018-12-08T18:43:23.813Z,15.37
2018-12-08T18:45:52.238Z,12.73
2018-12-08T18:48:20.593Z,11.10
2018-12-08T18:50:49.084Z,10.57
2018-12-08T18:53:17.671Z,10.97
2018-12-08T18:55:46.030Z,8.40
2018-12-08T18:58:14.466Z,8.37
2018-12-08T19:00:42.899Z,8.87
2018-12-08T19:03:11.430Z,11.33
2018-12-08T19:05:39.705Z,9.93
2018-12-08T19:08:08.154Z,9.57
2018-12-08T19:10:36.463Z,7.17
2018-12-08T19:13:04.873Z,6.97
2018-12-08T19:15:33.567Z,9.30
2018-12-08T19:18:01.990Z,12.90
2018-12-08T19:20:30.433Z,10.67
2018-12-08T19:22:58.817Z,12.20
2018-12-08T19:25:27.171Z,11.60
2018-12-08T19:27:55.444Z,12.80
2018-12-08T19:30:23.865Z,12.63
2018-12-08T19:32:52.136Z,23.57
2018-12-08T19:35:20.486Z,24.87
2018-12-08T19:37:49.966Z,22.37
2018-12-08T19:40:18.293Z,20.70
2018-12-08T19:45:15.390Z,22.47
2018-12-08T19:47:43.740Z,24.83
2018-12-08T19:50:12.149Z,34.37
2018-12-08T19:52:41.497Z,27.97
2018-12-08T19:55:09.824Z,22.90
2018-12-08T19:57:38.523Z,26.93
2018-12-08T20:00:08.643Z,24.10
2018-12-08T20:02:36.919Z,19.70
2018-12-08T20:05:05.730Z,15.27
2018-12-08T20:07:34.164Z,22.80
2018-12-08T20:10:04.471Z,26.23
2018-12-08T20:12:33.314Z,26.90
2018-12-08T20:15:01.634Z,23.53
2018-12-08T20:17:30.104Z,22.13
2018-12-08T20:19:58.390Z,20.77
2018-12-08T20:24:54.628Z,18.77
2018-12-08T20:27:23.074Z,27.80
2018-12-08T20:29:51.381Z,20.83
2018-12-08T20:32:19.922Z,19.87
2018-12-08T20:34:48.245Z,25.77
2018-12-08T20:37:16.518Z,22.57
2018-12-08T20:39:44.837Z,24.97
2018-12-08T20:42:13.145Z,23.63
2018-12-08T20:44:41.528Z,27.83
2018-12-08T20:47:10.332Z,26.57
2018-12-08T20:49:38.638Z,23.57
2018-12-08T20:52:06.959Z,33.67
2018-12-08T20:54:35.241Z,22.93
2018-12-08T20:57:03.653Z,32.47
2018-12-08T20:59:31.942Z,30.10
2018-12-08T21:02:00.282Z,30.27
2018-12-08T21:04:28.642Z,27.87
2018-12-08T21:06:56.942Z,33.00
2018-12-08T21:09:25.238Z,31.90
2018-12-08T21:11:54.592Z,27.20
2018-12-08T21:14:23.001Z,21.30
2018-12-08T21:16:51.452Z,15.57
2018-12-08T21:19:20.225Z,10.07
2018-12-08T21:21:48.498Z,11.10
2018-12-08T21:24:16.795Z,11.40
2018-12-08T21:26:45.172Z,15.47
2018-12-08T21:29:14.856Z,24.93
2018-12-08T21:31:43.498Z,26.07
2018-12-08T21:34:12.648Z,29.23
2018-12-08T21:36:40.926Z,36.03
2018-12-08T21:39:09.287Z,37.33
2018-12-08T21:41:37.761Z,32.17
2018-12-08T21:44:06.242Z,42.73
2018-12-08T21:46:34.760Z,42.50
2018-12-08T21:49:03.540Z,34.63
2018-12-08T21:51:32.042Z,36.80
2018-12-08T21:54:00.415Z,36.40
2018-12-08T21:56:29.319Z,39.33
2018-12-08T21:58:57.784Z,34.43
2018-12-08T22:01:28.490Z,35.63
2018-12-08T22:03:56.927Z,35.07
2018-12-08T22:06:25.643Z,46.83
2018-12-08T22:08:54.110Z,36.27
2018-12-08T22:11:23.348Z,43.27
2018-12-08T22:13:53.855Z,38.27
2018-12-08T22:16:27.472Z,32.50
2018-12-08T22:19:01.950Z,27.47
2018-12-08T22:21:31.701Z,27.97
2018-12-08T22:24:00.295Z,24.13
2018-12-08T22:26:34.140Z,22.23
2018-12-08T22:29:06.607Z,26.83
2018-12-08T22:31:38.710Z,27.60
2018-12-08T22:34:12.534Z,31.37
2018-12-08T22:36:42.010Z,30.13
2018-12-08T22:39:10.398Z,25.90
2018-12-08T23:04:49.954Z,22.63
2018-12-08T23:07:18.592Z,21.80
2018-12-08T23:09:47.458Z,24.67
2018-12-08T23:12:15.914Z,19.80
2018-12-08T23:14:44.236Z,21.83
2018-12-08T23:17:12.538Z,21.07
2018-12-08T23:19:40.899Z,17.67
2018-12-08T23:22:09.259Z,26.23
2018-12-08T23:24:38.049Z,21.57
2018-12-08T23:27:06.832Z,20.87
2018-12-08T23:29:35.116Z,31.30
2018-12-08T23:37:56.305Z,18.90
2018-12-08T23:40:24.727Z,19.77
2018-12-08T23:42:56.110Z,16.97
2018-12-08T23:45:24.595Z,24.10
2018-12-08T23:47:52.946Z,18.97
2018-12-08T23:50:21.287Z,19.33
2018-12-08T23:53:02.387Z,18.70
2018-12-08T23:55:30.673Z,25.37
2018-12-08T23:57:59.623Z,19.13
